createdAt,value
2023-02-03T00:00:52.744Z,94.35
2023-02-03T00:02:58.135Z,94.34
2023-02-03T00:05:00.774Z,94.51
2023-02-03T00:07:03.882Z,94.64
2023-02-03T00:09:06.653Z,94.56
2023-02-03T00:11:09.363Z,94.44
2023-02-03T00:13:12.399Z,94.40
2023-02-03T00:15:15.162Z,94.29
2023-02-03T00:17:17.833Z,93.96
2023-02-03T00:19:20.542Z,93.60
2023-02-03T00:21:23.192Z,93.96
2023-02-03T00:23:26.307Z,94.15
2023-02-03T00:25:28.948Z,94.19
2023-02-03T00:27:32.846Z,94.14
2023-02-03T00:29:35.482Z,93.90
2023-02-03T00:31:38.221Z,93.62
2023-02-03T00:33:41.012Z,93.79
2023-02-03T00:35:43.777Z,93.58
2023-02-03T00:37:52.578Z,93.77
2023-02-03T00:39:55.337Z,93.85
2023-02-03T00:41:58.304Z,93.77
2023-02-03T00:44:00.951Z,93.42
2023-02-03T00:46:03.724Z,93.69
2023-02-03T00:48:06.616Z,93.94
2023-02-03T00:50:10.708Z,93.42
2023-02-03T00:52:13.395Z,93.55
2023-02-03T00:54:16.208Z,93.51
2023-02-03T00:56:18.840Z,93.70
2023-02-03T00:58:21.929Z,93.38
2023-02-03T01:00:24.955Z,93.32
2023-02-03T01:02:27.732Z,93.52
2023-02-03T01:04:30.513Z,93.62
2023-02-03T01:06:33.268Z,93.95
2023-02-03T01:08:35.918Z,93.80
2023-02-03T01:10:39.446Z,93.57
2023-02-03T01:12:42.133Z,93.56
2023-02-03T01:14:44.800Z,94.14
2023-02-03T01:16:47.621Z,93.72
2023-02-03T01:18:51.243Z,93.34
2023-02-03T01:20:53.914Z,93.18
2023-02-03T01:22:56.570Z,92.97
2023-02-03T01:24:59.230Z,93.20
2023-02-03T01:27:01.911Z,92.66
2023-02-03T01:29:04.599Z,93.03
2023-02-03T01:31:14.618Z,92.92
2023-02-03T01:33:17.452Z,92.33
2023-02-03T01:35:20.086Z,92.79
2023-02-03T01:37:22.785Z,92.77
2023-02-03T01:39:26.624Z,92.76
2023-02-03T01:41:32.891Z,92.92
2023-02-03T01:43:38.904Z,93.25
2023-02-03T01:45:41.758Z,93.30
2023-02-03T01:47:50.610Z,92.56
2023-02-03T01:50:00.320Z,92.33
2023-02-03T01:52:04.319Z,92.70
2023-02-03T01:54:19.015Z,92.75
2023-02-03T01:56:22.813Z,92.29
2023-02-03T01:58:32.199Z,92.13
2023-02-03T02:00:35.106Z,92.43
2023-02-03T02:02:37.946Z,92.39
2023-02-03T02:04:55.994Z,92.41
2023-02-03T02:06:59.552Z,92.25
2023-02-03T02:09:02.510Z,92.19
2023-02-03T02:11:07.312Z,92.58
2023-02-03T02:13:10.173Z,92.05
2023-02-03T02:15:13.043Z,91.98
2023-02-03T02:17:37.383Z,92.57
2023-02-03T02:20:04.685Z,92.91
2023-02-03T02:23:04.584Z,92.12
2023-02-03T02:25:28.055Z,92.27
2023-02-03T02:27:42.647Z,92.71
2023-02-03T02:30:22.388Z,92.18
2023-02-03T02:32:39.807Z,92.10
2023-02-03T02:35:07.628Z,92.53
2023-02-03T02:37:28.455Z,92.12
2023-02-03T02:39:40.332Z,92.71
2023-02-03T02:41:45.066Z,92.85
2023-02-03T02:43:59.843Z,93.42
2023-02-03T02:46:23.286Z,93.11
2023-02-03T02:48:47.559Z,93.43
2023-02-03T02:50:54.151Z,93.07
2023-02-03T02:52:58.169Z,92.88
2023-02-03T02:55:05.834Z,93.65
2023-02-03T02:57:12.174Z,93.29
2023-02-03T02:59:15.641Z,93.29
2023-02-03T03:01:19.377Z,93.13
2023-02-03T03:03:24.394Z,93.40
2023-02-03T03:05:28.481Z,93.06
2023-02-03T03:07:35.670Z,93.32
2023-02-03T03:10:01.506Z,93.15
2023-02-03T03:12:07.550Z,93.41
2023-02-03T03:14:13.179Z,92.87
2023-02-03T03:16:18.499Z,93.14
2023-02-03T03:18:28.989Z,93.15
2023-02-03T03:20:33.263Z,93.06
2023-02-03T03:22:43.676Z,93.67
2023-02-03T03:24:50.718Z,93.86
2023-02-03T03:27:02.795Z,93.30
2023-02-03T03:29:13.455Z,93.64
2023-02-03T03:31:19.407Z,93.80
2023-02-03T03:33:23.315Z,93.63
2023-02-03T03:35:33.247Z,93.59
2023-02-03T03:37:42.036Z,93.66
2023-02-03T03:40:26.265Z,93.85
2023-02-03T03:42:36.060Z,93.53
2023-02-03T03:44:48.521Z,94.06
2023-02-03T03:47:01.358Z,94.55
2023-02-03T03:49:06.448Z,93.85
2023-02-03T03:51:15.521Z,94.15
2023-02-03T03:53:20.001Z,94.12
2023-02-03T03:55:23.073Z,94.31
2023-02-03T03:57:40.430Z,94.71
2023-02-03T03:59:48.100Z,94.07
2023-02-03T04:01:52.643Z,94.43
2023-02-03T04:04:01.034Z,94.72
2023-02-03T04:06:04.160Z,94.37
2023-02-03T04:08:07.268Z,94.38
2023-02-03T04:10:39.033Z,94.26
2023-02-03T04:12:41.694Z,94.22
2023-02-03T04:14:44.329Z,94.48
2023-02-03T04:16:47.007Z,93.97
2023-02-03T04:18:49.671Z,94.19
2023-02-03T04:20:52.314Z,93.38
2023-02-03T04:22:55.238Z,93.29
2023-02-03T04:25:01.333Z,93.25
2023-02-03T04:27:06.003Z,93.23
2023-02-03T04:29:09.031Z,93.32
2023-02-03T04:31:11.753Z,93.21
2023-02-03T04:33:14.522Z,93.59
2023-02-03T04:35:17.236Z,92.93
2023-02-03T04:37:21.284Z,93.68
2023-02-03T04:39:23.985Z,93.27
2023-02-03T04:41:26.633Z,92.90
2023-02-03T04:43:29.237Z,93.40
2023-02-03T04:45:31.967Z,93.08
2023-02-03T04:47:34.591Z,93.24
2023-02-03T04:49:37.227Z,93.22
2023-02-03T04:51:39.842Z,93.42
2023-02-03T04:53:42.442Z,93.55
2023-02-03T04:55:49.235Z,93.66
2023-02-03T04:57:56.227Z,93.31
2023-02-03T04:59:58.852Z,93.01
2023-02-03T05:02:04.708Z,93.09
2023-02-03T05:04:07.325Z,93.33
2023-02-03T05:06:10.002Z,93.02
2023-02-03T05:08:13.008Z,92.94
2023-02-03T05:10:16.129Z,93.35
2023-02-03T05:12:18.829Z,93.09
2023-02-03T05:14:21.772Z,92.88
2023-02-03T05:16:24.584Z,93.03
2023-02-03T05:18:27.308Z,92.76
2023-02-03T05:20:29.954Z,92.96
2023-02-03T05:22:32.885Z,92.56
2023-02-03T05:24:35.540Z,92.42
2023-02-03T05:26:38.605Z,92.85
2023-02-03T05:28:41.373Z,92.85
2023-02-03T05:30:44.058Z,92.40
2023-02-03T05:32:46.841Z,92.49
2023-02-03T05:34:49.538Z,92.47
2023-02-03T05:36:52.123Z,92.34
2023-02-03T05:38:54.809Z,92.14
2023-02-03T05:41:16.004Z,91.98
2023-02-03T05:43:19.357Z,92.31
2023-02-03T05:45:21.991Z,91.36
2023-02-03T05:47:24.646Z,91.96
2023-02-03T05:49:27.391Z,91.80
2023-02-03T05:51:30.039Z,91.43
2023-02-03T05:53:32.672Z,91.48
2023-02-03T05:55:37.958Z,91.73
2023-02-03T05:57:40.628Z,91.45
2023-02-03T05:59:43.276Z,91.31
2023-02-03T06:01:45.978Z,91.14
2023-02-03T06:03:49.154Z,91.46
2023-02-03T06:05:51.925Z,90.81
2023-02-03T06:07:55.027Z,90.90
2023-02-03T06:09:57.679Z,89.82
2023-02-03T06:12:00.527Z,90.18
2023-02-03T06:14:04.173Z,90.29
2023-02-03T06:16:07.116Z,90.08
2023-02-03T06:18:09.997Z,90.37
2023-02-03T06:20:14.267Z,90.22
2023-02-03T06:22:16.899Z,90.13
2023-02-03T06:24:19.639Z,89.91
2023-02-03T06:26:22.353Z,90.00
2023-02-03T06:28:25.085Z,89.98
2023-02-03T06:30:28.161Z,89.52
2023-02-03T06:32:31.084Z,89.62
2023-02-03T06:34:34.164Z,89.53
2023-02-03T06:36:36.897Z,89.29
2023-02-03T06:38:39.610Z,89.05
2023-02-03T06:40:42.303Z,89.09
2023-02-03T06:42:48.499Z,88.41
2023-02-03T06:44:51.246Z,88.14
2023-02-03T06:46:53.931Z,87.52
2023-02-03T06:48:57.062Z,87.73
2023-02-03T06:50:59.739Z,87.28
2023-02-03T06:53:02.424Z,87.02
2023-02-03T06:55:05.708Z,86.97
2023-02-03T06:57:08.684Z,86.03
2023-02-03T06:59:11.353Z,86.10
2023-02-03T07:01:15.080Z,85.66
2023-02-03T07:03:17.769Z,85.08
2023-02-03T07:05:20.509Z,85.26
2023-02-03T07:07:23.154Z,84.90
2023-02-03T07:09:25.783Z,84.60
2023-02-03T07:11:28.818Z,83.91
2023-02-03T07:13:31.528Z,84.47
2023-02-03T07:15:34.399Z,84.11
2023-02-03T07:17:37.248Z,83.77
2023-02-03T07:19:39.938Z,84.11
2023-02-03T07:21:42.599Z,83.08
2023-02-03T07:23:48.690Z,83.37
2023-02-03T07:25:51.365Z,82.73
2023-02-03T07:27:54.529Z,82.80
2023-02-03T07:29:57.322Z,82.60
2023-02-03T07:32:02.810Z,82.43
2023-02-03T07:34:06.580Z,82.35
2023-02-03T07:36:10.770Z,80.60
2023-02-03T07:38:13.420Z,80.87
2023-02-03T07:40:17.582Z,81.49
2023-02-03T07:42:20.303Z,80.31
2023-02-03T07:44:22.929Z,79.53
2023-02-03T07:46:25.592Z,79.30
2023-02-03T07:48:28.393Z,79.57
2023-02-03T07:50:31.368Z,79.66
2023-02-03T07:52:34.078Z,79.23
2023-02-03T07:54:36.744Z,80.13
2023-02-03T07:56:39.382Z,79.91
2023-02-03T07:58:42.076Z,81.05
2023-02-03T08:00:45.045Z,80.34
2023-02-03T08:02:47.854Z,80.21
2023-02-03T08:04:50.583Z,80.54
2023-02-03T08:06:53.331Z,80.59
2023-02-03T08:08:56.034Z,80.55
2023-02-03T08:10:58.637Z,80.64
2023-02-03T08:13:01.519Z,80.05
2023-02-03T08:15:05.355Z,80.11
2023-02-03T08:17:08.015Z,79.43
2023-02-03T08:19:11.287Z,78.46
2023-02-03T08:21:14.005Z,79.59
2023-02-03T08:23:17.102Z,80.24
2023-02-03T08:25:22.483Z,80.33
2023-02-03T08:27:25.375Z,80.74
2023-02-03T08:29:28.100Z,80.36
2023-02-03T08:31:32.032Z,80.43
2023-02-03T08:33:34.875Z,80.25
2023-02-03T08:35:37.629Z,80.36
2023-02-03T08:37:40.321Z,80.54
2023-02-03T08:39:43.660Z,80.51
2023-02-03T08:41:46.295Z,80.00
2023-02-03T08:43:49.643Z,80.48
2023-02-03T08:45:52.304Z,80.88
2023-02-03T08:47:54.958Z,81.57
2023-02-03T08:49:58.180Z,80.22
2023-02-03T08:52:00.894Z,80.58
2023-02-03T08:54:04.334Z,80.58
2023-02-03T08:56:08.924Z,80.58
2023-02-03T08:58:11.631Z,80.60
2023-02-03T09:00:14.768Z,80.14
2023-02-03T09:02:19.692Z,80.54
2023-02-03T09:04:24.901Z,80.19
2023-02-03T09:06:27.764Z,80.58
2023-02-03T09:08:30.514Z,80.80
2023-02-03T09:10:33.190Z,81.29
2023-02-03T09:12:35.837Z,80.30
2023-02-03T09:14:38.972Z,81.03
2023-02-03T09:16:41.677Z,81.80
2023-02-03T09:18:45.820Z,81.75
2023-02-03T09:20:48.504Z,81.36
2023-02-03T09:22:51.423Z,81.76
2023-02-03T09:24:54.500Z,81.44
2023-02-03T09:26:57.559Z,80.68
2023-02-03T09:29:00.287Z,81.94
2023-02-03T09:31:17.968Z,81.79
2023-02-03T09:33:20.862Z,81.83
2023-02-03T09:35:24.121Z,81.64
2023-02-03T09:37:29.918Z,81.79
2023-02-03T09:39:33.208Z,81.10
2023-02-03T09:42:07.014Z,81.56
2023-02-03T09:44:15.876Z,82.23
2023-02-03T09:46:24.499Z,81.28
2023-02-03T09:48:35.431Z,81.80
2023-02-03T09:50:41.475Z,81.38
2023-02-03T09:55:41.771Z,80.18
2023-02-03T09:58:05.231Z,80.58
2023-02-03T10:00:22.855Z,80.68
2023-02-03T10:02:33.752Z,81.07
2023-02-03T10:04:48.316Z,80.95
2023-02-03T10:06:53.056Z,80.48
2023-02-03T10:09:29.777Z,81.13
2023-02-03T10:12:01.380Z,80.89
2023-02-03T10:14:31.780Z,81.33
2023-02-03T10:17:09.853Z,81.29
2023-02-03T10:19:28.801Z,81.52
2023-02-03T10:21:40.652Z,81.91
2023-02-03T10:23:50.252Z,80.80
2023-02-03T10:26:02.170Z,81.47
2023-02-03T10:28:15.698Z,81.58
2023-02-03T10:30:46.038Z,81.26
2023-02-03T10:33:14.710Z,80.49
2023-02-03T10:35:18.363Z,81.41
2023-02-03T10:37:47.737Z,81.30
2023-02-03T10:39:53.221Z,81.15
2023-02-03T10:41:56.415Z,80.85
2023-02-03T10:44:02.750Z,80.96
2023-02-03T10:46:05.544Z,80.94
2023-02-03T10:48:16.076Z,80.95
2023-02-03T10:50:25.813Z,80.32
2023-02-03T10:52:32.012Z,80.48
2023-02-03T10:54:36.179Z,81.14
2023-02-03T10:56:41.219Z,81.36
2023-02-03T10:58:59.227Z,82.08
2023-02-03T11:01:12.480Z,81.81
2023-02-03T11:03:26.157Z,81.12
2023-02-03T11:05:29.230Z,81.07
2023-02-03T11:07:31.961Z,81.09
2023-02-03T11:09:38.070Z,81.69
2023-02-03T11:11:42.208Z,81.43
2023-02-03T11:13:44.952Z,80.76
2023-02-03T11:15:58.914Z,80.98
2023-02-03T11:18:01.806Z,80.96
2023-02-03T11:20:16.142Z,80.36
2023-02-03T11:22:32.136Z,80.12
2023-02-03T11:24:40.050Z,80.61
2023-02-03T11:26:57.510Z,80.14
2023-02-03T11:29:02.613Z,80.96
2023-02-03T11:31:05.553Z,81.13
2023-02-03T11:33:30.383Z,80.86
2023-02-03T11:35:34.907Z,81.59
2023-02-03T11:37:42.705Z,81.05
2023-02-03T11:39:45.565Z,80.97
2023-02-03T11:41:49.320Z,81.68
2023-02-03T11:43:56.454Z,81.42
2023-02-03T11:46:08.189Z,82.21
2023-02-03T11:48:11.000Z,81.35
2023-02-03T11:50:35.454Z,82.32
2023-02-03T11:53:05.102Z,82.50
2023-02-03T11:55:27.481Z,82.51
2023-02-03T11:57:41.254Z,82.27
2023-02-03T12:00:13.549Z,82.81
2023-02-03T12:02:51.866Z,82.28
2023-02-03T12:05:15.997Z,83.37
2023-02-03T12:07:55.185Z,83.41
2023-02-03T12:10:26.951Z,83.34
2023-02-03T12:12:47.823Z,83.95
2023-02-03T12:15:38.941Z,84.09
2023-02-03T12:18:12.841Z,83.85
2023-02-03T12:20:27.827Z,84.29
2023-02-03T12:22:57.137Z,84.42
2023-02-03T12:25:26.760Z,84.43
2023-02-03T12:28:32.864Z,84.72
2023-02-03T12:30:44.956Z,84.54
2023-02-03T12:32:51.688Z,84.71
2023-02-03T12:35:03.500Z,85.16
2023-02-03T12:37:10.615Z,85.40
2023-02-03T12:39:30.904Z,85.83
2023-02-03T12:41:38.513Z,85.76
2023-02-03T12:43:49.517Z,86.44
2023-02-03T12:46:01.142Z,86.71
2023-02-03T12:48:17.970Z,86.96
2023-02-03T12:50:35.493Z,86.64
2023-02-03T12:53:03.495Z,86.96
2023-02-03T12:55:16.403Z,86.96
2023-02-03T12:57:22.533Z,87.29
2023-02-03T12:59:30.746Z,87.44
2023-02-03T13:01:46.761Z,87.13
2023-02-03T13:03:56.540Z,87.08
2023-02-03T13:06:14.098Z,86.91
2023-02-03T13:08:30.078Z,87.04
2023-02-03T13:10:39.981Z,86.98
2023-02-03T13:12:46.873Z,87.36
2023-02-03T13:15:27.720Z,87.09
2023-02-03T13:17:42.221Z,87.24
2023-02-03T13:19:50.329Z,87.32
2023-02-03T13:21:53.513Z,87.19
2023-02-03T13:23:57.435Z,87.10
2023-02-03T13:26:18.752Z,87.21
2023-02-03T13:28:48.582Z,87.63
2023-02-03T13:30:51.326Z,88.25
2023-02-03T13:33:12.394Z,87.94
2023-02-03T13:35:40.558Z,87.41
2023-02-03T13:38:02.121Z,87.31
2023-02-03T13:40:36.964Z,87.06
2023-02-03T13:42:46.086Z,86.74
2023-02-03T13:44:53.940Z,87.00
2023-02-03T13:46:59.547Z,87.29
2023-02-03T13:49:05.107Z,87.60
2023-02-03T13:51:20.806Z,87.40
2023-02-03T13:53:29.759Z,87.84
2023-02-03T13:55:43.228Z,88.23
2023-02-03T13:57:52.776Z,88.45
2023-02-03T13:59:55.554Z,88.10
2023-02-03T14:02:24.625Z,87.63
2023-02-03T14:04:27.217Z,88.07
2023-02-03T14:06:38.885Z,88.06
2023-02-03T14:08:41.458Z,87.94
2023-02-03T14:10:44.392Z,88.32
2023-02-03T14:12:49.790Z,88.64
2023-02-03T14:14:52.396Z,88.94
2023-02-03T14:16:55.560Z,88.39
2023-02-03T14:18:58.180Z,88.75
2023-02-03T14:21:17.940Z,88.33
2023-02-03T14:23:28.481Z,88.61
2023-02-03T14:25:33.121Z,88.82
2023-02-03T14:27:35.831Z,88.70
2023-02-03T14:29:38.460Z,89.28
2023-02-03T14:32:02.991Z,89.51
2023-02-03T14:34:14.641Z,89.59
2023-02-03T14:36:43.370Z,89.68
2023-02-03T14:38:46.213Z,89.78
2023-02-03T14:41:03.005Z,89.67
2023-02-03T14:43:17.487Z,90.11
2023-02-03T14:45:40.462Z,90.14
2023-02-03T14:47:57.886Z,89.75
2023-02-03T14:50:08.202Z,89.80
2023-02-03T14:52:41.684Z,89.91
2023-02-03T14:54:59.409Z,89.94
2023-02-03T14:57:23.939Z,90.36
2023-02-03T14:59:38.963Z,89.92
2023-02-03T15:01:41.607Z,90.38
2023-02-03T15:04:12.954Z,90.47
2023-02-03T15:06:38.449Z,90.60
2023-02-03T15:08:46.817Z,90.79
2023-02-03T15:10:49.849Z,90.72
2023-02-03T15:12:58.578Z,90.46
2023-02-03T15:15:24.059Z,90.61
2023-02-03T15:17:30.937Z,90.75
2023-02-03T15:19:41.040Z,90.68
2023-02-03T15:21:44.294Z,91.09
2023-02-03T15:23:49.563Z,91.01
2023-02-03T15:25:55.660Z,91.05
2023-02-03T15:28:22.504Z,91.22
2023-02-03T15:30:27.995Z,91.27
2023-02-03T15:32:39.749Z,91.40
2023-02-03T15:34:50.741Z,90.85
2023-02-03T15:36:57.772Z,91.33
2023-02-03T15:39:33.712Z,91.05
2023-02-03T15:41:36.794Z,91.03
2023-02-03T15:43:43.128Z,90.75
2023-02-03T15:45:58.975Z,91.28
2023-02-03T15:48:05.499Z,91.11
2023-02-03T15:50:17.067Z,91.62
2023-02-03T15:52:23.450Z,91.27
2023-02-03T15:54:31.454Z,91.45
2023-02-03T15:56:45.208Z,90.97
2023-02-03T15:58:49.767Z,91.33
2023-02-03T16:01:02.583Z,91.17
2023-02-03T16:03:16.447Z,91.08
2023-02-03T16:05:49.836Z,91.06
2023-02-03T16:07:53.253Z,90.92
2023-02-03T16:09:58.096Z,91.05
2023-02-03T16:12:06.265Z,91.50
2023-02-03T16:14:12.386Z,91.00
2023-02-03T16:16:21.362Z,90.64
2023-02-03T16:18:24.479Z,91.14
2023-02-03T16:20:33.130Z,90.71
2023-02-03T16:23:00.897Z,90.71
2023-02-03T16:25:41.974Z,90.39
2023-02-03T16:28:15.857Z,90.95
2023-02-03T16:30:42.183Z,91.08
2023-02-03T16:33:18.576Z,91.17
2023-02-03T16:35:40.132Z,91.05
2023-02-03T16:38:03.079Z,90.84
2023-02-03T16:40:24.812Z,90.71
2023-02-03T16:42:54.195Z,91.05
2023-02-03T16:45:17.485Z,91.33
2023-02-03T16:47:47.216Z,90.84
2023-02-03T16:50:08.447Z,91.17
2023-02-03T16:52:11.117Z,91.05
2023-02-03T16:54:15.613Z,91.24
2023-02-03T16:56:19.388Z,91.09
2023-02-03T16:58:22.361Z,91.18
2023-02-03T17:00:25.299Z,90.75
2023-02-03T17:02:28.059Z,90.87
2023-02-03T17:04:31.864Z,91.34
2023-02-03T17:06:44.387Z,91.21
2023-02-03T17:08:47.104Z,91.24
2023-02-03T17:10:50.680Z,90.95
2023-02-03T17:12:53.461Z,91.55
2023-02-03T17:14:58.601Z,91.12
2023-02-03T17:17:01.349Z,91.20
2023-02-03T17:19:04.190Z,91.09
2023-02-03T17:21:09.413Z,91.45
2023-02-03T17:23:13.276Z,92.00
2023-02-03T17:25:15.999Z,91.60
2023-02-03T17:27:19.056Z,90.90
2023-02-03T17:29:22.272Z,91.61
2023-02-03T17:31:25.221Z,91.50
2023-02-03T17:33:29.359Z,91.71
2023-02-03T17:35:32.173Z,91.77
2023-02-03T17:37:35.908Z,91.56
2023-02-03T17:53:43.416Z,91.61
2023-02-03T17:57:53.892Z,91.60
2023-02-03T17:59:56.890Z,91.59
2023-02-03T18:01:59.648Z,91.44
2023-02-03T18:04:04.923Z,91.78
2023-02-03T18:06:07.792Z,91.61
2023-02-03T18:08:16.181Z,91.84
2023-02-03T18:10:19.751Z,91.46
2023-02-03T18:12:22.902Z,91.37
2023-02-03T18:14:26.221Z,91.59
2023-02-03T18:16:35.885Z,91.54
2023-02-03T18:18:41.560Z,91.41
2023-02-03T18:20:44.309Z,91.62
2023-02-03T18:22:47.058Z,91.57
2023-02-03T18:24:52.876Z,91.41
2023-02-03T18:26:56.484Z,91.38
2023-02-03T18:29:00.335Z,91.67
2023-02-03T18:31:08.119Z,91.69
2023-02-03T18:33:11.103Z,91.63
2023-02-03T18:35:16.930Z,91.29
2023-02-03T18:37:19.669Z,91.88
2023-02-03T18:39:22.513Z,91.81
2023-02-03T18:41:26.428Z,92.09
2023-02-03T18:43:29.095Z,91.80
2023-02-03T18:45:34.644Z,91.45
2023-02-03T18:47:37.828Z,91.70
2023-02-03T18:49:41.102Z,92.14
2023-02-03T18:51:43.930Z,92.03
2023-02-03T18:53:49.239Z,91.52
2023-02-03T18:55:51.989Z,91.59
2023-02-03T18:57:54.759Z,92.03
2023-02-03T18:59:57.411Z,91.70
2023-02-03T19:02:00.350Z,91.97
2023-02-03T19:04:06.320Z,92.05
2023-02-03T19:06:10.068Z,91.82
2023-02-03T19:08:14.660Z,91.80
2023-02-03T19:10:18.461Z,91.81
2023-02-03T19:12:21.284Z,91.96
2023-02-03T19:14:24.925Z,91.98
2023-02-03T19:16:27.828Z,91.66
2023-02-03T19:18:33.535Z,91.97
2023-02-03T19:20:36.245Z,92.32
2023-02-03T19:22:39.040Z,91.85
2023-02-03T19:24:41.739Z,92.03
2023-02-03T19:26:46.908Z,91.88
2023-02-03T19:28:50.331Z,91.59
2023-02-03T19:30:57.402Z,92.40
2023-02-03T19:33:03.135Z,92.04
2023-02-03T19:35:06.501Z,91.75
2023-02-03T19:37:09.891Z,91.79
2023-02-03T19:39:13.865Z,92.37
2023-02-03T19:41:16.782Z,92.06
2023-02-03T19:43:19.437Z,91.91
2023-02-03T19:45:22.694Z,92.23
2023-02-03T19:47:25.800Z,92.26
2023-02-03T19:49:30.498Z,91.84
2023-02-03T19:51:34.486Z,92.01
2023-02-03T19:53:37.242Z,92.16
2023-02-03T19:55:40.102Z,91.90
2023-02-03T19:57:43.206Z,91.92
2023-02-03T19:59:49.503Z,91.61
2023-02-03T20:01:52.583Z,91.93
2023-02-03T20:03:59.331Z,91.65
2023-02-03T20:06:03.143Z,91.45
2023-02-03T20:08:06.777Z,91.70
2023-02-03T20:10:09.943Z,92.03
2023-02-03T20:12:13.392Z,91.82
2023-02-03T20:14:19.936Z,91.77
2023-02-03T20:16:23.196Z,91.96
2023-02-03T20:18:27.283Z,91.49
2023-02-03T20:20:31.583Z,91.53
2023-02-03T20:22:35.226Z,92.00
2023-02-03T20:24:38.960Z,91.98
2023-02-03T20:26:42.244Z,92.14
2023-02-03T20:28:46.170Z,92.48
2023-02-03T20:30:58.653Z,91.95
2023-02-03T20:33:03.582Z,91.81
2023-02-03T20:35:07.639Z,91.96
2023-02-03T20:37:11.697Z,91.94
2023-02-03T20:39:21.017Z,91.96
2023-02-03T20:41:24.458Z,91.51
2023-02-03T20:43:29.406Z,92.49
2023-02-03T20:45:32.774Z,92.22
2023-02-03T20:47:35.511Z,91.99
2023-02-03T20:49:38.641Z,92.27
2023-02-03T20:51:41.725Z,92.09
2023-02-03T20:53:44.894Z,92.29
2023-02-03T20:55:49.306Z,92.36
2023-02-03T20:57:54.966Z,92.63
2023-02-03T20:59:57.709Z,92.20
2023-02-03T21:02:08.124Z,92.03
2023-02-03T21:04:34.495Z,92.20
2023-02-03T21:06:37.547Z,92.13
2023-02-03T21:08:40.336Z,92.71
2023-02-03T21:10:44.670Z,93.17
2023-02-03T21:12:48.800Z,93.38
2023-02-03T21:14:53.980Z,93.02
2023-02-03T21:16:57.697Z,92.09
2023-02-03T21:19:03.094Z,92.19
2023-02-03T21:21:16.973Z,92.08
2023-02-03T21:23:48.790Z,92.11
2023-02-03T21:25:52.744Z,92.28
2023-02-03T21:27:58.372Z,92.22
2023-02-03T21:30:06.629Z,92.33
2023-02-03T21:32:14.587Z,91.84
2023-02-03T21:34:29.753Z,92.00
2023-02-03T21:36:37.037Z,92.26
2023-02-03T21:38:40.317Z,92.32
2023-02-03T21:40:43.266Z,92.25
2023-02-03T21:42:47.073Z,92.41
2023-02-03T21:44:50.200Z,92.25
2023-02-03T21:46:53.161Z,92.54
2023-02-03T21:49:00.885Z,92.69
2023-02-03T21:51:15.741Z,92.37
2023-02-03T21:53:36.171Z,91.98
2023-02-03T21:55:42.816Z,92.13
2023-02-03T21:57:50.440Z,92.68
2023-02-03T21:59:53.964Z,92.24
2023-02-03T22:01:58.911Z,92.03
2023-02-03T22:04:03.084Z,92.29
2023-02-03T22:06:09.068Z,91.98
2023-02-03T22:08:23.229Z,92.10
2023-02-03T22:10:26.421Z,92.33
2023-02-03T22:12:29.411Z,92.53
2023-02-03T22:14:32.757Z,92.37
2023-02-03T22:16:36.788Z,92.67
2023-02-03T22:18:41.891Z,92.37
2023-02-03T22:20:45.293Z,92.72
2023-02-03T22:22:48.787Z,92.31
2023-02-03T22:24:51.820Z,92.55
2023-02-03T22:27:00.315Z,92.68
2023-02-03T22:29:03.190Z,92.99
2023-02-03T22:31:07.794Z,92.72
2023-02-03T22:33:10.699Z,92.21
2023-02-03T22:35:13.535Z,92.63
2023-02-03T22:37:16.198Z,92.46
2023-02-03T22:39:18.909Z,92.60
2023-02-03T22:41:21.882Z,92.46
2023-02-03T22:43:25.385Z,92.27
2023-02-03T22:45:28.097Z,92.66
2023-02-03T22:47:30.666Z,92.51
2023-02-03T22:49:33.275Z,92.35
2023-02-03T22:51:36.030Z,92.59
2023-02-03T22:53:40.058Z,92.77
2023-02-03T22:55:43.292Z,92.08
2023-02-03T22:57:46.112Z,92.47
2023-02-03T22:59:48.753Z,92.58
2023-02-03T23:01:51.455Z,92.28
2023-02-03T23:03:54.320Z,92.28
2023-02-03T23:05:57.604Z,92.30
2023-02-03T23:08:01.242Z,92.15
2023-02-03T23:10:05.544Z,92.09
2023-02-03T23:12:08.892Z,92.67
2023-02-03T23:14:11.952Z,92.53
2023-02-03T23:16:15.173Z,92.68
2023-02-03T23:18:17.930Z,92.54
2023-02-03T23:20:20.903Z,91.95
2023-02-03T23:22:23.676Z,91.92
2023-02-03T23:24:26.455Z,91.62
2023-02-03T23:26:29.233Z,91.86
2023-02-03T23:28:32.529Z,91.68
2023-02-03T23:30:35.236Z,91.60
2023-02-03T23:32:37.992Z,91.73
2023-02-03T23:34:59.627Z,90.91
2023-02-03T23:37:02.646Z,91.60
2023-02-03T23:39:05.360Z,91.89
2023-02-03T23:41:08.054Z,92.10
2023-02-03T23:43:10.978Z,91.79
2023-02-03T23:45:13.710Z,91.67
2023-02-03T23:47:16.571Z,91.75
2023-02-03T23:49:19.277Z,91.82
2023-02-03T23:51:21.980Z,91.66
2023-02-03T23:53:24.809Z,91.39
2023-02-03T23:55:27.608Z,91.04
2023-02-03T23:57:30.383Z,91.16
2023-02-03T23:59:33.201Z,91.14
